createdAt,value
2023-03-06T00:03:46.227Z,6.05
2023-03-06T00:08:48.935Z,6.53
2023-03-06T00:13:53.183Z,7.78
2023-03-06T00:18:55.792Z,7.63
2023-03-06T00:23:59.330Z,7.47
2023-03-06T00:29:03.213Z,9.38
2023-03-06T00:34:06.055Z,7.70
2023-03-06T00:39:08.693Z,8.90
2023-03-06T00:44:12.723Z,7.47
2023-03-06T00:49:15.277Z,8.30
2023-03-06T00:54:17.870Z,7.07
2023-03-06T00:59:21.905Z,6.85
2023-03-06T01:04:24.704Z,7.00
2023-03-06T01:09:27.289Z,7.67
2023-03-06T01:14:32.250Z,7.80
2023-03-06T01:19:34.841Z,7.50
2023-03-06T01:24:37.362Z,7.47
2023-03-06T01:29:41.561Z,7.20
2023-03-06T01:34:44.139Z,6.90
2023-03-06T01:39:46.776Z,7.90
2023-03-06T01:45:31.446Z,8.07
2023-03-06T01:50:35.461Z,8.30
2023-03-06T01:55:38.377Z,7.70
2023-03-06T02:00:41.037Z,8.77
2023-03-06T02:05:45.259Z,8.65
2023-03-06T02:10:58.625Z,8.32
2023-03-06T02:16:01.871Z,9.20
2023-03-06T02:21:08.570Z,8.38
2023-03-06T02:26:13.342Z,9.48
2023-03-06T02:31:22.472Z,8.05
2023-03-06T02:36:25.049Z,9.07
2023-03-06T02:41:29.127Z,9.80
2023-03-06T02:46:31.790Z,9.75
2023-03-06T02:51:34.520Z,10.13
2023-03-06T02:56:38.451Z,10.00
2023-03-06T03:01:41.079Z,9.82
2023-03-06T03:06:43.644Z,10.43
2023-03-06T03:11:47.542Z,10.98
2023-03-06T03:16:50.047Z,9.43
2023-03-06T03:21:52.623Z,9.93
2023-03-06T03:26:56.555Z,9.20
2023-03-06T03:31:59.198Z,9.32
2023-03-06T03:37:01.784Z,9.95
2023-03-06T03:42:06.050Z,10.20
2023-03-06T03:47:08.608Z,11.55
2023-03-06T03:52:11.155Z,11.85
2023-03-06T03:57:15.035Z,11.52
2023-03-06T04:02:18.070Z,11.73
2023-03-06T04:07:20.668Z,14.55
2023-03-06T04:12:24.560Z,14.98
2023-03-06T04:17:27.216Z,15.60
2023-03-06T04:22:29.783Z,15.00
2023-03-06T04:27:33.713Z,15.57
2023-03-06T04:32:36.390Z,15.23
2023-03-06T04:37:39.111Z,15.20
2023-03-06T04:42:43.265Z,15.05
2023-03-06T04:47:45.923Z,16.88
2023-03-06T04:52:48.675Z,16.38
2023-03-06T04:57:52.628Z,15.70
2023-03-06T05:02:55.178Z,17.00
2023-03-06T05:07:57.967Z,16.17
2023-03-06T05:13:01.914Z,15.33
2023-03-06T05:18:05.079Z,16.52
2023-03-06T05:23:07.615Z,17.25
2023-03-06T05:28:11.512Z,17.17
2023-03-06T05:33:14.078Z,18.20
2023-03-06T05:38:17.412Z,18.50
2023-03-06T05:43:21.392Z,18.25
2023-03-06T05:48:23.967Z,17.77
2023-03-06T05:53:27.113Z,18.25
2023-03-06T05:58:32.678Z,20.95
2023-03-06T06:03:35.641Z,20.80
2023-03-06T06:08:39.015Z,21.08
2023-03-06T06:13:43.029Z,22.63
2023-03-06T06:18:45.859Z,21.88
2023-03-06T06:23:48.408Z,22.83
2023-03-06T06:28:52.329Z,23.15
2023-03-06T06:33:54.979Z,23.65
2023-03-06T06:38:57.782Z,24.57
2023-03-06T06:44:02.095Z,23.77
2023-03-06T06:49:05.452Z,23.05
2023-03-06T06:54:08.570Z,24.45
2023-03-06T06:59:17.322Z,24.02
2023-03-06T07:04:21.148Z,22.77
2023-03-06T07:14:28.712Z,21.58
2023-03-06T07:19:31.287Z,20.67
2023-03-06T07:24:34.084Z,19.40
2023-03-06T07:29:37.991Z,18.77
2023-03-06T07:34:40.745Z,18.83
2023-03-06T07:39:43.311Z,19.33
2023-03-06T07:44:47.203Z,18.90
2023-03-06T07:49:49.782Z,17.00
2023-03-06T07:54:52.379Z,17.25
2023-03-06T07:59:56.333Z,16.48
2023-03-06T08:04:58.883Z,8.48
2023-03-06T08:10:02.483Z,5.88
2023-03-06T08:20:11.312Z,6.90
2023-03-06T08:25:14.372Z,6.65
2023-03-06T08:30:21.483Z,5.30
2023-03-06T08:35:24.145Z,4.45
2023-03-06T08:40:30.402Z,5.03
2023-03-06T08:45:34.298Z,5.18
2023-03-06T08:50:36.944Z,4.97
2023-03-06T08:55:40.184Z,3.60
2023-03-06T09:00:44.260Z,2.50
2023-03-06T09:05:47.196Z,2.20
2023-03-06T09:10:50.037Z,2.00
2023-03-06T09:15:54.128Z,2.17
2023-03-06T09:20:56.917Z,1.85
2023-03-06T09:26:00.910Z,2.00
2023-03-06T09:31:08.726Z,2.33
2023-03-06T09:36:15.604Z,1.13
2023-03-06T09:41:26.541Z,0.70
2023-03-06T09:46:39.581Z,1.00
2023-03-06T09:51:52.678Z,1.10
2023-03-06T09:56:55.281Z,0.90
2023-03-06T10:02:10.605Z,1.17
2023-03-06T10:07:19.271Z,0.88
2023-03-06T10:12:24.991Z,0.95
2023-03-06T10:17:35.720Z,1.20
2023-03-06T10:22:48.016Z,1.10
2023-03-06T10:28:02.307Z,1.10
2023-03-06T10:33:12.939Z,1.45
2023-03-06T10:38:21.667Z,1.10
2023-03-06T10:43:24.553Z,0.68
2023-03-06T10:48:30.634Z,1.10
2023-03-06T10:53:33.322Z,0.80
2023-03-06T10:58:35.873Z,1.10
2023-03-06T11:03:39.807Z,1.00
2023-03-06T11:08:44.319Z,0.95
2023-03-06T11:13:58.082Z,1.00
2023-03-06T11:19:05.706Z,0.65
2023-03-06T11:24:16.449Z,1.20
2023-03-06T11:29:29.607Z,0.93
2023-03-06T11:34:41.191Z,4.03
2023-03-06T11:39:47.932Z,1.00
2023-03-06T11:45:03.327Z,0.98
2023-03-06T11:50:18.834Z,0.70
2023-03-06T11:55:34.593Z,0.73
2023-03-06T12:00:49.679Z,0.88
2023-03-06T12:06:03.861Z,0.70
2023-03-06T12:16:35.726Z,0.90
2023-03-06T12:21:51.711Z,0.80
2023-03-06T12:27:06.105Z,0.65
2023-03-06T12:32:21.151Z,0.85
2023-03-06T12:37:36.358Z,1.10
2023-03-06T12:43:03.157Z,0.93
2023-03-06T12:48:12.127Z,0.80
2023-03-06T12:53:22.176Z,0.73
2023-03-06T12:58:52.760Z,1.00
2023-03-06T13:04:13.412Z,0.80
2023-03-06T13:09:20.871Z,0.80
2023-03-06T13:14:26.273Z,0.70
2023-03-06T13:19:29.021Z,0.88
2023-03-06T13:24:35.066Z,0.70
2023-03-06T13:30:07.067Z,0.82
2023-03-06T13:35:52.461Z,0.70
2023-03-06T13:46:24.997Z,0.85
2023-03-06T13:51:34.385Z,0.60
2023-03-06T13:57:04.761Z,0.90
2023-03-06T14:02:28.940Z,0.52
2023-03-06T14:07:32.596Z,1.27
2023-03-06T14:12:39.128Z,0.75
2023-03-06T14:17:54.145Z,0.93
2023-03-06T14:23:15.090Z,1.02
2023-03-06T14:28:26.660Z,0.70
2023-03-06T14:33:33.157Z,0.82
2023-03-06T14:38:43.388Z,1.50
2023-03-06T14:43:47.320Z,1.00
2023-03-06T14:48:50.735Z,0.80
2023-03-06T14:59:01.788Z,0.70
2023-03-06T15:04:13.627Z,0.90
2023-03-06T15:09:20.544Z,0.80
2023-03-06T15:14:32.952Z,1.00
2023-03-06T15:19:40.298Z,0.70
2023-03-06T15:24:43.027Z,1.20
2023-03-06T15:29:47.304Z,1.10
2023-03-06T15:35:29.906Z,1.15
2023-03-06T15:40:33.262Z,2.45
2023-03-06T15:45:37.208Z,1.30
2023-03-06T15:50:39.888Z,1.60
2023-03-06T15:55:42.753Z,1.57
2023-03-06T16:00:46.882Z,3.03
2023-03-06T16:05:49.624Z,3.60
2023-03-06T16:10:52.451Z,4.80
2023-03-06T16:15:57.023Z,5.43
2023-03-06T16:21:00.649Z,6.03
2023-03-06T16:26:03.252Z,8.63
2023-03-06T16:31:07.345Z,7.13
2023-03-06T16:36:14.007Z,9.05
2023-03-06T16:41:17.261Z,5.90
2023-03-06T16:46:24.349Z,6.22
2023-03-06T16:51:26.915Z,6.78
2023-03-06T16:56:29.484Z,7.90
2023-03-06T17:01:33.527Z,6.63
2023-03-06T17:06:36.339Z,7.13
2023-03-06T17:11:39.500Z,7.17
2023-03-06T17:16:43.494Z,7.85
2023-03-06T17:21:46.108Z,6.72
2023-03-06T17:26:48.919Z,9.77
2023-03-06T17:31:52.884Z,10.57
2023-03-06T17:36:56.179Z,11.15
2023-03-06T17:41:58.794Z,11.85
2023-03-06T17:47:03.439Z,13.00
2023-03-06T17:52:06.523Z,12.30
2023-03-06T17:57:09.055Z,12.77
2023-03-06T18:02:13.336Z,13.98
2023-03-06T18:07:15.919Z,15.00
2023-03-06T18:12:18.487Z,15.98
2023-03-06T18:17:22.608Z,18.77
2023-03-06T18:22:25.271Z,19.35
2023-03-06T18:27:27.844Z,22.33
2023-03-06T18:32:31.987Z,22.38
2023-03-06T18:37:34.580Z,24.45
2023-03-06T18:42:37.144Z,22.85
2023-03-06T18:47:41.661Z,25.27
2023-03-06T18:52:44.493Z,25.65
2023-03-06T18:57:47.108Z,28.70
2023-03-06T19:02:50.994Z,27.55
2023-03-06T19:07:53.551Z,30.55
2023-03-06T19:12:56.084Z,30.05
2023-03-06T19:18:00.406Z,35.78
2023-03-06T19:23:02.915Z,33.80
2023-03-06T19:28:05.555Z,33.95
2023-03-06T19:33:09.468Z,36.73
2023-03-06T19:38:12.097Z,37.13
2023-03-06T19:43:14.662Z,37.40
2023-03-06T19:48:18.559Z,36.22
2023-03-06T19:53:21.680Z,37.78
2023-03-06T19:58:24.232Z,35.92
2023-03-06T20:03:28.080Z,37.67
2023-03-06T20:08:30.676Z,36.10
2023-03-06T20:13:34.289Z,36.30
2023-03-06T20:23:40.900Z,38.63
2023-03-06T20:28:43.924Z,40.27
2023-03-06T20:33:49.953Z,39.33
2023-03-06T20:38:52.587Z,40.00
2023-03-06T20:43:55.490Z,37.97
2023-03-06T20:48:59.604Z,37.03
2023-03-06T20:54:03.146Z,35.35
2023-03-06T20:59:06.742Z,36.47
2023-03-06T21:09:14.747Z,29.42
2023-03-06T21:19:21.049Z,34.97
2023-03-06T21:24:23.605Z,33.78
2023-03-06T21:29:26.172Z,35.20
2023-03-06T21:34:30.152Z,35.15
2023-03-06T21:39:32.733Z,30.75
2023-03-06T21:44:35.317Z,30.40
2023-03-06T21:49:39.454Z,32.47
2023-03-06T21:54:42.069Z,29.70
2023-03-06T21:59:44.616Z,28.83
2023-03-06T22:04:52.535Z,29.58
2023-03-06T22:09:55.788Z,28.08
2023-03-06T22:14:58.380Z,29.02
2023-03-06T22:20:02.344Z,27.50
2023-03-06T22:25:05.875Z,31.17
2023-03-06T22:30:09.929Z,30.50
2023-03-06T22:35:13.836Z,30.25
2023-03-06T22:40:16.736Z,30.33
2023-03-06T22:45:19.300Z,30.03
2023-03-06T22:50:23.222Z,29.67
2023-03-06T22:55:26.514Z,30.30
2023-03-06T23:00:29.196Z,29.75
2023-03-06T23:05:33.111Z,29.50
2023-03-06T23:10:38.077Z,29.83
2023-03-06T23:15:40.755Z,30.05
2023-03-06T23:20:45.321Z,29.80
2023-03-06T23:25:47.947Z,28.40
2023-03-06T23:30:51.012Z,28.42
2023-03-06T23:35:55.126Z,28.02
2023-03-06T23:40:57.772Z,27.15
2023-03-06T23:46:00.995Z,24.73
2023-03-06T23:51:08.231Z,24.27
2023-03-06T23:56:11.524Z,22.40
